N121SL KEGE-KSLC
Flight info
| Callsign | N121SL |
|---|---|
| Flight time | 0h 44m |
| Altitude | 34000 |
| Route | BEVVR1 SPRKT DCT EKR DCT RACER JAZZZ1 |
| Aircraft | A388/J-SADE2E3FGHIJ3J4J5M1RWXY/LB1D1 |
Departure
| Time | 2026-05-07 00:51 |
|---|---|
| Airport | Eagle County Regional Airport (KEGE) |
Arrival
| Time | 2026-05-07 01:36 |
|---|---|
| Airport | Salt Lake City International Airport (KSLC) |
| Time | Latitude | Longitude | Altitude | Speed | Heading |
|---|---|---|---|---|---|
| 2026-05-07 00:34 | 39.64073 | -106.91542 | 6533 ft | 0 kts | 172° |
| 2026-05-07 00:40 | 39.64078 | -106.91545 | 6532 ft | 0 kts | 152° |
| 2026-05-07 00:41 | 39.64084 | -106.91548 | 6537 ft | 2 kts | 164° |
| 2026-05-07 00:41 | 39.64096 | -106.91560 | 6538 ft | 2 kts | 112° |
| 2026-05-07 00:41 | 39.64093 | -106.91575 | 6537 ft | 0 kts | 62° |
| 2026-05-07 00:42 | 39.64086 | -106.91576 | 6538 ft | 0 kts | 2° |
| 2026-05-07 00:43 | 39.64103 | -106.91575 | 6538 ft | 5 kts | 360° |
| 2026-05-07 00:44 | 39.64140 | -106.91574 | 6532 ft | 6 kts | 16° |
| 2026-05-07 00:44 | 39.64165 | -106.91538 | 6532 ft | 9 kts | 72° |
| 2026-05-07 00:44 | 39.64187 | -106.91406 | 6536 ft | 20 kts | 85° |
| 2026-05-07 00:44 | 39.64210 | -106.91186 | 6537 ft | 24 kts | 81° |
| 2026-05-07 00:45 | 39.64235 | -106.90975 | 6540 ft | 23 kts | 81° |
| 2026-05-07 00:45 | 39.64256 | -106.90788 | 6545 ft | 20 kts | 82° |
| 2026-05-07 00:45 | 39.64276 | -106.90604 | 6545 ft | 21 kts | 82° |
| 2026-05-07 00:45 | 39.64296 | -106.90423 | 6550 ft | 19 kts | 82° |
| 2026-05-07 00:46 | 39.64313 | -106.90262 | 6555 ft | 17 kts | 82° |
| 2026-05-07 00:46 | 39.64330 | -106.90107 | 6557 ft | 16 kts | 82° |
| 2026-05-07 00:46 | 39.64333 | -106.90077 | 6556 ft | 0 kts | 81° |
| 2026-05-07 00:49 | 39.64347 | -106.90037 | 6557 ft | 6 kts | 45° |
| 2026-05-07 00:49 | 39.64388 | -106.90020 | 6557 ft | 7 kts | 354° |
| 2026-05-07 00:50 | 39.64433 | -106.90044 | 6557 ft | 6 kts | 300° |
| 2026-05-07 00:50 | 39.64436 | -106.90104 | 6556 ft | 0 kts | 261° |
| 2026-05-07 00:50 | 39.64432 | -106.90134 | 6556 ft | 23 kts | 261° |
| 2026-05-07 00:50 | 39.64371 | -106.90720 | 6545 ft | 113 kts | 262° |
| 2026-05-07 00:51 | 39.64228 | -106.92045 | 6527 ft | 178 kts | 262° |
| 2026-05-07 00:51 | 39.64016 | -106.93799 | 6666 ft | 208 kts | 252° |
| 2026-05-07 00:51 | 39.63056 | -106.95230 | 7266 ft | 223 kts | 205° |
| 2026-05-07 00:51 | 39.61635 | -106.96083 | 8333 ft | 228 kts | 210° |
| 2026-05-07 00:52 | 39.60262 | -106.97055 | 9585 ft | 217 kts | 210° |
| 2026-05-07 00:52 | 39.59009 | -106.97986 | 10602 ft | 205 kts | 220° |
| 2026-05-07 00:52 | 39.58116 | -106.99339 | 11373 ft | 194 kts | 245° |
| 2026-05-07 00:52 | 39.57596 | -107.01001 | 11855 ft | 206 kts | 252° |
| 2026-05-07 00:53 | 39.56904 | -107.02745 | 12041 ft | 227 kts | 251° |
| 2026-05-07 00:53 | 39.56706 | -107.04798 | 12204 ft | 240 kts | 281° |
| 2026-05-07 00:53 | 39.57316 | -107.06835 | 12300 ft | 250 kts | 304° |
| 2026-05-07 00:53 | 39.58605 | -107.08461 | 12812 ft | 263 kts | 324° |
| 2026-05-07 00:54 | 39.60144 | -107.09759 | 13776 ft | 263 kts | 328° |
| 2026-05-07 00:54 | 39.61753 | -107.10870 | 14643 ft | 261 kts | 342° |
| 2026-05-07 00:54 | 39.63523 | -107.11187 | 15478 ft | 261 kts | 3° |
| 2026-05-07 00:54 | 39.65311 | -107.10741 | 16263 ft | 262 kts | 12° |
| 2026-05-07 00:55 | 39.67087 | -107.10220 | 17085 ft | 261 kts | 11° |
| 2026-05-07 00:55 | 39.68860 | -107.09732 | 17922 ft | 260 kts | 10° |
| 2026-05-07 00:55 | 39.70643 | -107.09292 | 18635 ft | 260 kts | 4° |
| 2026-05-07 00:55 | 39.72415 | -107.09527 | 19247 ft | 262 kts | 344° |
| 2026-05-07 00:56 | 39.74040 | -107.10685 | 19795 ft | 272 kts | 323° |
| 2026-05-07 00:56 | 39.75253 | -107.12627 | 20386 ft | 282 kts | 310° |
| 2026-05-07 00:56 | 39.76370 | -107.14810 | 20542 ft | 298 kts | 310° |
| 2026-05-07 00:56 | 39.77556 | -107.17081 | 20691 ft | 315 kts | 310° |
| 2026-05-07 00:57 | 39.78829 | -107.19514 | 20829 ft | 332 kts | 310° |
| 2026-05-07 00:57 | 39.80158 | -107.22060 | 20964 ft | 348 kts | 309° |
| 2026-05-07 00:57 | 39.81546 | -107.24721 | 21103 ft | 363 kts | 309° |
| 2026-05-07 00:57 | 39.82981 | -107.27484 | 21440 ft | 370 kts | 309° |
| 2026-05-07 00:58 | 39.84423 | -107.30274 | 21893 ft | 372 kts | 309° |
| 2026-05-07 00:58 | 39.85859 | -107.33052 | 22381 ft | 376 kts | 309° |
| 2026-05-07 00:58 | 39.87331 | -107.35894 | 22958 ft | 378 kts | 309° |
| 2026-05-07 00:58 | 39.88808 | -107.38745 | 23444 ft | 381 kts | 309° |
| 2026-05-07 00:59 | 39.91775 | -107.44478 | 24394 ft | 385 kts | 309° |
| 2026-05-07 00:59 | 39.93278 | -107.47387 | 24840 ft | 387 kts | 309° |
| 2026-05-07 00:59 | 39.94789 | -107.50315 | 25310 ft | 390 kts | 309° |
| 2026-05-07 01:00 | 39.96157 | -107.53412 | 25771 ft | 397 kts | 302° |
| 2026-05-07 01:00 | 39.97249 | -107.56725 | 26244 ft | 405 kts | 296° |
| 2026-05-07 01:00 | 39.98159 | -107.60222 | 26723 ft | 408 kts | 296° |
| 2026-05-07 01:00 | 39.99091 | -107.63732 | 27214 ft | 411 kts | 296° |
| 2026-05-07 01:01 | 40.00044 | -107.67273 | 27728 ft | 414 kts | 296° |
| 2026-05-07 01:01 | 40.01001 | -107.70838 | 28259 ft | 417 kts | 296° |
| 2026-05-07 01:01 | 40.01960 | -107.74426 | 28790 ft | 421 kts | 296° |
| 2026-05-07 01:01 | 40.02924 | -107.78044 | 29307 ft | 424 kts | 296° |
| 2026-05-07 01:02 | 40.03898 | -107.81706 | 29817 ft | 428 kts | 296° |
| 2026-05-07 01:02 | 40.04865 | -107.85353 | 30345 ft | 431 kts | 296° |
| 2026-05-07 01:02 | 40.05834 | -107.89079 | 30783 ft | 436 kts | 294° |
| 2026-05-07 01:02 | 40.06564 | -107.92962 | 31251 ft | 445 kts | 287° |
| 2026-05-07 01:03 | 40.06972 | -107.97019 | 31712 ft | 454 kts | 281° |
| 2026-05-07 01:03 | 40.07142 | -108.01166 | 32155 ft | 458 kts | 280° |
| 2026-05-07 01:03 | 40.07326 | -108.05342 | 32556 ft | 461 kts | 281° |
| 2026-05-07 01:03 | 40.07520 | -108.09469 | 33010 ft | 463 kts | 281° |
| 2026-05-07 01:04 | 40.07715 | -108.13687 | 33430 ft | 466 kts | 280° |
| 2026-05-07 01:04 | 40.07909 | -108.17928 | 33850 ft | 469 kts | 280° |
| 2026-05-07 01:04 | 40.08100 | -108.22202 | 34107 ft | 474 kts | 280° |
| 2026-05-07 01:05 | 40.08470 | -108.30783 | 34123 ft | 477 kts | 280° |
| 2026-05-07 01:05 | 40.08844 | -108.39453 | 34107 ft | 482 kts | 279° |
| 2026-05-07 01:06 | 40.09211 | -108.48220 | 34102 ft | 482 kts | 279° |
| 2026-05-07 01:06 | 40.09573 | -108.56989 | 34105 ft | 483 kts | 279° |
| 2026-05-07 01:07 | 40.09925 | -108.65697 | 34101 ft | 481 kts | 279° |
| 2026-05-07 01:07 | 40.10275 | -108.74462 | 34105 ft | 482 kts | 279° |
| 2026-05-07 01:08 | 40.10616 | -108.83160 | 34102 ft | 481 kts | 279° |
| 2026-05-07 01:08 | 40.10951 | -108.91887 | 34099 ft | 481 kts | 279° |
| 2026-05-07 01:09 | 40.11277 | -109.00585 | 34099 ft | 481 kts | 279° |
| 2026-05-07 01:09 | 40.11600 | -109.09338 | 34097 ft | 481 kts | 279° |
| 2026-05-07 01:10 | 40.11914 | -109.18027 | 34096 ft | 481 kts | 279° |
| 2026-05-07 01:10 | 40.12224 | -109.26778 | 34092 ft | 481 kts | 279° |
| 2026-05-07 01:11 | 40.12524 | -109.35459 | 34103 ft | 480 kts | 279° |
| 2026-05-07 01:11 | 40.12820 | -109.44175 | 34117 ft | 480 kts | 279° |
| 2026-05-07 01:12 | 40.13109 | -109.52914 | 34115 ft | 480 kts | 279° |
| 2026-05-07 01:12 | 40.13392 | -109.61645 | 34120 ft | 480 kts | 278° |
| 2026-05-07 01:13 | 40.13666 | -109.70321 | 34111 ft | 480 kts | 278° |
| 2026-05-07 01:13 | 40.13935 | -109.79063 | 34106 ft | 480 kts | 278° |
| 2026-05-07 01:14 | 40.14196 | -109.87722 | 34105 ft | 480 kts | 278° |
| 2026-05-07 01:14 | 40.14450 | -109.96446 | 34104 ft | 479 kts | 278° |
| 2026-05-07 01:15 | 40.14700 | -110.05120 | 34093 ft | 479 kts | 278° |
| 2026-05-07 01:15 | 40.14911 | -110.13865 | 34088 ft | 482 kts | 275° |
| 2026-05-07 01:16 | 40.14822 | -110.22630 | 34089 ft | 482 kts | 276° |
| 2026-05-07 01:16 | 40.14762 | -110.31359 | 34092 ft | 483 kts | 276° |
| 2026-05-07 01:17 | 40.14688 | -110.40132 | 34092 ft | 483 kts | 275° |
| 2026-05-07 01:17 | 40.14602 | -110.48929 | 34044 ft | 482 kts | 275° |
| 2026-05-07 01:17 | 40.14555 | -110.53287 | 33289 ft | 479 kts | 275° |
| 2026-05-07 01:18 | 40.14510 | -110.57672 | 31938 ft | 484 kts | 275° |
| 2026-05-07 01:18 | 40.14462 | -110.62070 | 30921 ft | 481 kts | 275° |
| 2026-05-07 01:18 | 40.14411 | -110.66375 | 29998 ft | 476 kts | 275° |
| 2026-05-07 01:18 | 40.14358 | -110.70679 | 29019 ft | 469 kts | 275° |
| 2026-05-07 01:19 | 40.14305 | -110.74914 | 28130 ft | 461 kts | 275° |
| 2026-05-07 01:19 | 40.14253 | -110.79022 | 27215 ft | 455 kts | 275° |
| 2026-05-07 01:19 | 40.14199 | -110.83135 | 26284 ft | 448 kts | 275° |
| 2026-05-07 01:19 | 40.14146 | -110.87201 | 25384 ft | 443 kts | 274° |
| 2026-05-07 01:20 | 40.14093 | -110.91207 | 24513 ft | 438 kts | 274° |
| 2026-05-07 01:20 | 40.14038 | -110.95180 | 23735 ft | 431 kts | 274° |
| 2026-05-07 01:20 | 40.13982 | -110.99035 | 22786 ft | 426 kts | 274° |
| 2026-05-07 01:20 | 40.13925 | -111.02892 | 21903 ft | 420 kts | 274° |
| 2026-05-07 01:21 | 40.13868 | -111.06679 | 21047 ft | 414 kts | 274° |
| 2026-05-07 01:21 | 40.13811 | -111.10384 | 20596 ft | 401 kts | 274° |
| 2026-05-07 01:21 | 40.13754 | -111.13989 | 20070 ft | 390 kts | 274° |
| 2026-05-07 01:21 | 40.13698 | -111.17501 | 19543 ft | 382 kts | 274° |
| 2026-05-07 01:22 | 40.13645 | -111.20886 | 19025 ft | 374 kts | 274° |
| 2026-05-07 01:22 | 40.13591 | -111.24260 | 18525 ft | 367 kts | 274° |
| 2026-05-07 01:22 | 40.13535 | -111.27572 | 17976 ft | 360 kts | 273° |
| 2026-05-07 01:22 | 40.13479 | -111.30810 | 17337 ft | 356 kts | 273° |
| 2026-05-07 01:23 | 40.13423 | -111.34055 | 16677 ft | 358 kts | 273° |
| 2026-05-07 01:23 | 40.13367 | -111.37344 | 16340 ft | 363 kts | 273° |
| 2026-05-07 01:23 | 40.13310 | -111.40656 | 15852 ft | 363 kts | 272° |
| 2026-05-07 01:23 | 40.13250 | -111.43853 | 15685 ft | 348 kts | 272° |
| 2026-05-07 01:24 | 40.13188 | -111.46947 | 15524 ft | 330 kts | 273° |
| 2026-05-07 01:24 | 40.13125 | -111.49880 | 15356 ft | 315 kts | 273° |
| 2026-05-07 01:24 | 40.13088 | -111.52715 | 15080 ft | 307 kts | 277° |
| 2026-05-07 01:24 | 40.13379 | -111.55365 | 14985 ft | 289 kts | 289° |
| 2026-05-07 01:25 | 40.14035 | -111.57829 | 14812 ft | 291 kts | 298° |
| 2026-05-07 01:25 | 40.14895 | -111.60275 | 14621 ft | 299 kts | 298° |
| 2026-05-07 01:25 | 40.15735 | -111.62759 | 14431 ft | 297 kts | 297° |
| 2026-05-07 01:25 | 40.16565 | -111.65232 | 14220 ft | 296 kts | 299° |
| 2026-05-07 01:26 | 40.17229 | -111.66777 | 14104 ft | 291 kts | 306° |
| 2026-05-07 01:26 | 40.18962 | -111.69428 | 13843 ft | 288 kts | 320° |
| 2026-05-07 01:26 | 40.20463 | -111.71162 | 13665 ft | 288 kts | 320° |
| 2026-05-07 01:26 | 40.21448 | -111.72327 | 13547 ft | 288 kts | 319° |
| 2026-05-07 01:27 | 40.22928 | -111.74100 | 13373 ft | 288 kts | 319° |
| 2026-05-07 01:27 | 40.24885 | -111.76451 | 13142 ft | 288 kts | 319° |
| 2026-05-07 01:27 | 40.25882 | -111.77649 | 13023 ft | 287 kts | 319° |
| 2026-05-07 01:27 | 40.27356 | -111.79415 | 12853 ft | 286 kts | 319° |
| 2026-05-07 01:28 | 40.28826 | -111.81176 | 12705 ft | 285 kts | 319° |
| 2026-05-07 01:28 | 40.30253 | -111.82887 | 12646 ft | 278 kts | 319° |
| 2026-05-07 01:28 | 40.31653 | -111.84567 | 12557 ft | 267 kts | 320° |
| 2026-05-07 01:28 | 40.33011 | -111.86197 | 12237 ft | 265 kts | 320° |
| 2026-05-07 01:29 | 40.34425 | -111.87732 | 11932 ft | 262 kts | 328° |
| 2026-05-07 01:29 | 40.36003 | -111.88886 | 11797 ft | 257 kts | 337° |
| 2026-05-07 01:29 | 40.37619 | -111.89806 | 11631 ft | 255 kts | 337° |
| 2026-05-07 01:29 | 40.39239 | -111.90760 | 11441 ft | 254 kts | 337° |
| 2026-05-07 01:30 | 40.40845 | -111.91719 | 11277 ft | 253 kts | 337° |
| 2026-05-07 01:30 | 40.42442 | -111.92670 | 11114 ft | 251 kts | 338° |
| 2026-05-07 01:30 | 40.44110 | -111.93340 | 10930 ft | 251 kts | 349° |
| 2026-05-07 01:30 | 40.45872 | -111.93651 | 10504 ft | 259 kts | 355° |
| 2026-05-07 01:31 | 40.47661 | -111.93835 | 10133 ft | 262 kts | 355° |
| 2026-05-07 01:31 | 40.49477 | -111.94052 | 9752 ft | 263 kts | 355° |
| 2026-05-07 01:31 | 40.51305 | -111.94264 | 9378 ft | 263 kts | 355° |
| 2026-05-07 01:31 | 40.53040 | -111.94467 | 9029 ft | 263 kts | 355° |
| 2026-05-07 01:32 | 40.54866 | -111.94679 | 8674 ft | 262 kts | 355° |
| 2026-05-07 01:32 | 40.56673 | -111.94890 | 8318 ft | 261 kts | 355° |
| 2026-05-07 01:32 | 40.58474 | -111.95099 | 7974 ft | 259 kts | 354° |
| 2026-05-07 01:32 | 40.60272 | -111.95309 | 7637 ft | 258 kts | 355° |
| 2026-05-07 01:33 | 40.62040 | -111.95515 | 7304 ft | 258 kts | 355° |
| 2026-05-07 01:33 | 40.63825 | -111.95723 | 6999 ft | 254 kts | 355° |
| 2026-05-07 01:33 | 40.65574 | -111.95927 | 6644 ft | 250 kts | 354° |
| 2026-05-07 01:33 | 40.67266 | -111.96124 | 6324 ft | 243 kts | 354° |
| 2026-05-07 01:34 | 40.68915 | -111.96316 | 6003 ft | 233 kts | 354° |
| 2026-05-07 01:34 | 40.70498 | -111.96501 | 5702 ft | 224 kts | 354° |
| 2026-05-07 01:34 | 40.71959 | -111.96670 | 5431 ft | 194 kts | 354° |
| 2026-05-07 01:34 | 40.73204 | -111.96815 | 5158 ft | 167 kts | 354° |
| 2026-05-07 01:35 | 40.74300 | -111.96944 | 4927 ft | 153 kts | 353° |
| 2026-05-07 01:35 | 40.75358 | -111.97067 | 4716 ft | 150 kts | 354° |
| 2026-05-07 01:35 | 40.76404 | -111.97191 | 4433 ft | 151 kts | 353° |
| 2026-05-07 01:35 | 40.77423 | -111.97303 | 4265 ft | 149 kts | 353° |
| 2026-05-07 01:36 | 40.78420 | -111.97425 | 4236 ft | 124 kts | 354° |
| 2026-05-07 01:36 | 40.79020 | -111.97501 | 4236 ft | 31 kts | 350° |
| 2026-05-07 01:36 | 40.79177 | -111.97586 | 4236 ft | 25 kts | 318° |
| 2026-05-07 01:36 | 40.79173 | -111.97723 | 4236 ft | 14 kts | 195° |
| 2026-05-07 01:37 | 40.79074 | -111.97708 | 4236 ft | 16 kts | 175° |
| 2026-05-07 01:37 | 40.78957 | -111.97696 | 4237 ft | 18 kts | 175° |
| 2026-05-07 01:37 | 40.78848 | -111.97694 | 4236 ft | 8 kts | 211° |
| 2026-05-07 01:37 | 40.78822 | -111.97758 | 4236 ft | 9 kts | 264° |
| 2026-05-07 01:38 | 40.78815 | -111.97855 | 4236 ft | 11 kts | 252° |
| 2026-05-07 01:38 | 40.78784 | -111.97963 | 4236 ft | 12 kts | 236° |
| 2026-05-07 01:38 | 40.78711 | -111.97985 | 4236 ft | 12 kts | 173° |
| 2026-05-07 01:38 | 40.78678 | -111.97981 | 4236 ft | 0 kts | 174° |